Data for 09/09/2008

Time Sea-Level Adjusted Pressure Absolute Pressure Temperature Relative Humidity Dew Point   
(mb) (inHg) (mb) (inHg) (C) (F) (%) (C) (F)
00:05 1015 29.97 845 24.95 9.5 49.1 60 2.2 36
00:10 1015 29.97 845 24.95 9.5 49 61 2.3 36.1
00:15 1015 29.97 845 24.95 9.5 49.2 60 2.2 36
00:20 1015 29.97 845 24.95 9.5 49 60 2.2 36
00:25 1015 29.97 845 24.95 9.4 48.9 61 2.2 35.9
00:30 1015 29.97 845 24.95 9.1 48.4 61 2 35.6
00:35 1015 29.97 844 24.92 9.2 48.5 60 1.8 35.2
00:40 1015 29.97 844 24.92 9.4 48.9 59 1.9 35.4
00:45 1015 29.97 844 24.92 9.6 49.2 58 1.8 35.2
00:50 1015 29.97 844 24.92 10.4 50.6 56 2.1 35.7
00:55 1015 29.97 844 24.92 10.1 50.1 58 2.2 35.9
01:00 1015 29.97 844 24.92 9.6 49.4 59 2.1 35.7
01:05 1015 29.97 844 24.92 9.4 48.9 60 2.1 35.8
01:10 1015 29.97 844 24.92 9.2 48.5 62 2.3 36.1
01:15 1015 29.97 844 24.92 9.1 48.3 62 2.2 35.9
01:20 1015 29.97 844 24.92 9.2 48.5 62 2.2 36
01:25 1015 29.97 844 24.92 9 48.2 62 2.2 36
01:30 1015 29.97 844 24.92 8.8 47.9 63 2.2 36
01:35 1015 29.97 844 24.92 8.7 47.7 63 2 35.6
01:40 1015 29.97 844 24.92 8.7 47.6 62 1.8 35.2
01:45 1015 29.97 844 24.92 8.7 47.7 62 1.8 35.3
01:50 1015 29.97 844 24.92 8.9 48 61 1.9 35.3
01:55 1015 29.97 844 24.92 8.9 48 62 2 35.6
02:00 1015 29.97 844 24.92 8.7 47.6 63 2 35.6
02:05 1015 29.97 844 24.92 8.7 47.7 62 2 35.6
02:10 1015 29.97 844 24.92 8.7 47.7 63 2.2 35.9
02:15 1015 29.97 844 24.92 8.6 47.5 64 2.1 35.8
02:20 1015 29.97 844 24.92 8.5 47.4 64 2.1 35.8
02:25 1015 29.97 844 24.92 8.5 47.2 64 2.1 35.7
02:30 1015 29.97 844 24.92 8.3 46.9 64 2 35.6
02:35 1014 29.94 844 24.92 8.2 46.7 64 1.9 35.3
02:40 1014 29.94 844 24.92 8 46.3 64 1.6 34.9
02:45 1014 29.94 843 24.89 7.6 45.7 65 1.5 34.7
02:50 1014 29.94 843 24.89 7.4 45.3 66 1.5 34.7
02:55 1014 29.94 843 24.89 7.5 45.5 64 1.2 34.1
03:00 1014 29.94 843 24.89 7.7 45.8 60 0.3 32.6
03:05 1014 29.94 843 24.89 8.3 46.9 56 0.1 32.1
03:10 1014 29.94 843 24.89 8.1 46.6 60 0.9 33.6
03:15 1014 29.94 843 24.89 7.4 45.2 62 0.5 32.9
03:20 1014 29.94 843 24.89 7 44.7 62 0.3 32.6
03:25 1014 29.94 843 24.89 7.3 45.1 59 -0.2 31.7
03:30 1014 29.94 843 24.89 8 46.4 59 0.4 32.8
03:35 1014 29.94 843 24.89 7.8 46 59 0.3 32.5
03:40 1014 29.94 843 24.89 7.4 45.2 61 0.4 32.8
03:45 1014 29.94 843 24.89 7.4 45.4 59 -0 32
03:50 1014 29.94 843 24.89 7.9 46.1 60 0.7 33.3
03:55 1014 29.94 843 24.89 8 46.5 60 0.7 33.2
04:00 1014 29.94 843 24.89 7.9 46.2 59 0.4 32.7
04:05 1014 29.94 843 24.89 7.6 45.7 62 0.7 33.3
04:10 1014 29.94 843 24.89 7.3 45.1 63 0.7 33.3
04:15 1014 29.94 843 24.89 7.1 44.7 62 0.4 32.7
04:20 1014 29.94 843 24.89 7.5 45.5 58 -0.2 31.7
04:25 1014 29.94 843 24.89 8.2 46.8 57 0.2 32.4
04:30 1014 29.94 843 24.89 8.5 47.3 55 -0 31.9
04:35 1014 29.94 843 24.89 8.4 47.2 58 0.6 33.2
04:40 1014 29.94 843 24.89 8.1 46.5 60 0.8 33.5
04:45 1014 29.94 843 24.89 7.7 45.9 61 0.7 33.3
04:50 1014 29.94 843 24.89 7.5 45.5 60 0.3 32.5
04:55 1014 29.94 843 24.89 7.6 45.6 60 0.3 32.5
05:00 1014 29.94 843 24.89 7.7 45.9 60 0.5 32.9
05:05 1014 29.94 843 24.89 7.5 45.4 62 0.6 33.1
05:10 1014 29.94 843 24.89 7.1 44.7 62 0.4 32.7
05:15 1014 29.94 843 24.89 6.9 44.4 62 0.2 32.4
05:20 1014 29.94 843 24.89 6.7 44.1 64 0.5 32.9
05:25 1014 29.94 843 24.89 6.3 43.3 66 0.4 32.7
05:30 1014 29.94 843 24.89 6.2 43.1 63 -0.4 31.3
05:35 1014 29.94 843 24.89 7.1 44.7 60 -0.2 31.6
05:40 1014 29.94 843 24.89 7.3 45.1 60 0.1 32.2
05:45 1014 29.94 843 24.89 7 44.6 64 0.6 33.1
05:50 1014 29.94 843 24.89 7.2 44.9 62 0.5 32.9
05:55 1014 29.94 843 24.89 7.1 44.7 63 0.6 33
06:00 1014 29.94 843 24.89 6.7 44.1 65 0.7 33.3
06:05 1014 29.94 843 24.89 6.4 43.6 67 0.8 33.4
06:10 1014 29.94 843 24.89 6.2 43.2 67 0.6 33
06:15 1014 29.94 843 24.89 6.4 43.5 67 0.8 33.4
06:20 1014 29.94 843 24.89 6.3 43.3 67 0.7 33.3
06:25 1014 29.94 843 24.89 6.1 42.9 67 0.5 32.9
06:30 1014 29.94 843 24.89 5.9 42.7 67 0.3 32.5
06:35 1014 29.94 843 24.89 5.9 42.6 69 0.6 33.1
06:40 1014 29.94 843 24.89 6 42.9 67 0.4 32.7
06:45 1014 29.94 843 24.89 6 42.8 68 0.5 32.9
06:50 1014 29.94 843 24.89 6.1 43 67 0.5 32.8
06:55 1014 29.94 843 24.89 5.8 42.5 66 0.1 32.1
07:00 1014 29.94 843 24.89 5.9 42.6 66 -0 32
07:05 1014 29.94 843 24.89 6.3 43.4 65 0.2 32.3
07:10 1014 29.94 843 24.89 6.4 43.6 66 0.7 33.2
07:15 1014 29.94 843 24.89 5.7 42.3 70 0.7 33.3
07:20 1014 29.94 843 24.89 5.2 41.4 70 0.2 32.4
07:25 1014 29.94 843 24.89 5.5 41.9 69 0.3 32.5
07:30 1014 29.94 843 24.89 5.8 42.4 68 0.4 32.7
07:35 1014 29.94 843 24.89 5.7 42.3 69 0.5 32.9
07:40 1014 29.94 843 24.89 5.8 42.5 67 0.1 32.3
07:45 1014 29.94 843 24.89 6.5 43.6 65 0.3 32.6
07:50 1014 29.94 843 24.89 6.8 44.3 64 0.5 32.8
07:55 1014 29.94 843 24.89 6.9 44.4 63 0.3 32.6
08:00 1014 29.94 843 24.89 6.9 44.5 64 0.6 33.1
08:05 1014 29.94 843 24.89 6.9 44.4 65 0.8 33.5
08:10 1014 29.94 843 24.89 7.1 44.8 65 0.9 33.6
08:15 1014 29.94 843 24.89 7.3 45.2 64 1 33.7
08:20 1014 29.94 843 24.89 7.9 46.2 63 1.2 34.1
08:25 1014 29.94 843 24.89 8.4 47.1 59 0.9 33.7
08:30 1014 29.94 843 24.89 8.6 47.4 59 1.1 34
08:35 1014 29.94 843 24.89 9.2 48.5 58 1.4 34.4
08:40 1014 29.94 843 24.89 9.9 49.8 54 1.1 33.9
08:45 1014 29.94 843 24.89 10.1 50.2 53 1 33.8
08:50 1014 29.94 843 24.89 10.4 50.7 53 1.2 34.1
08:55 1014 29.94 843 24.89 10.7 51.3 52 1.4 34.4
09:00 1014 29.94 843 24.89 11 51.7 51 1.2 34.2
09:05 1014 29.94 843 24.89 11.1 52 51 1.4 34.5
09:10 1014 29.94 843 24.89 11.4 52.6 48 1 33.8
09:15 1013 29.91 843 24.89 11.6 52.8 49 1.3 34.4
09:20 1013 29.91 843 24.89 12.2 54 46 1.1 34
09:25 1013 29.91 842 24.86 12.7 54.8 48 2 35.6
09:30 1013 29.91 842 24.86 13.3 55.9 45 1.6 34.9
09:35 1013 29.91 842 24.86 13.4 56.1 44 1.5 34.6
09:40 1013 29.91 842 24.86 14.1 57.3 41 1 33.7
09:45 1013 29.91 842 24.86 14.9 58.9 39 1 33.8
09:50 1013 29.91 842 24.86 15.5 59.9 38 1.2 34.1
09:55 1013 29.91 842 24.86 15.4 59.8 37 0.7 33.3
10:00 1013 29.91 842 24.86 16.3 61.3 34 0.7 33.3
10:05 1013 29.91 842 24.86 16.3 61.4 34 0.7 33.2
10:10 1013 29.91 843 24.89 16.9 62.3 35 1.4 34.5
10:15 1013 29.91 843 24.89 17 62.7 33 0.9 33.6
10:20 1013 29.91 843 24.89 17 62.5 34 0.9 33.7
10:25 1013 29.91 843 24.89 17.3 63.1 33 0.8 33.4
10:30 1013 29.91 843 24.89 17.1 62.7 33 0.9 33.7
10:35 1013 29.91 843 24.89 17.2 63 34 1.5 34.7
10:40 1013 29.91 843 24.89 15.7 60.2 39 1.7 35.1
10:45 1013 29.91 843 24.89 16 60.8 36 0.9 33.6
10:50 1013 29.91 843 24.89 16.8 62.2 35 1.5 34.7
10:55 1013 29.91 843 24.89 16.9 62.5 37 2.1 35.8
11:00 1013 29.91 843 24.89 16.7 62.1 37 2.1 35.7
11:05 1013 29.91 842 24.86 16.4 61.5 37 1.8 35.3
11:10 1013 29.91 842 24.86 17.5 63.4 36 2.4 36.3
11:15 1013 29.91 842 24.86 17.8 64.1 36 2.7 36.8
11:20 1013 29.91 842 24.86 17.7 63.9 36 2.6 36.7
11:25 1013 29.91 842 24.86 17.8 64.1 35 2.4 36.3
11:30 1013 29.91 842 24.86 18.3 64.9 34 2.2 35.9
11:35 1013 29.91 842 24.86 19 66.1 31 1.6 34.9
11:40 1013 29.91 842 24.86 19.4 67 30 1.8 35.2
11:45 1013 29.91 842 24.86 19 66.2 30 1.4 34.5
11:50 1013 29.91 842 24.86 18.3 65 31 1.3 34.3
11:55 1013 29.91 842 24.86 19.2 66.5 32 2 35.7
12:00 1013 29.91 842 24.86 20 68.1 29 1.5 34.7
12:05 1013 29.91 842 24.86 19.2 66.6 31 1.8 35.2
12:10 1013 29.91 842 24.86 19.8 67.6 29 1.5 34.7
12:15 1012 29.88 842 24.86 19.3 66.8 30 1.6 34.9
12:20 1012 29.88 842 24.86 19.9 67.7 31 2.2 36
12:25 1012 29.88 841 24.83 20.3 68.6 29 2.1 35.8
12:30 1012 29.88 841 24.83 19.7 67.4 30 1.8 35.2
12:35 1012 29.88 841 24.83 20.3 68.6 30 2.2 36
12:40 1012 29.88 841 24.83 20.1 68.3 29 1.8 35.3
12:45 1012 29.88 841 24.83 19.5 67.2 30 1.8 35.3
12:50 1012 29.88 841 24.83 19.6 67.2 28 0.6 33
12:55 1012 29.88 841 24.83 20.7 69.2 26 0.8 33.5
13:00 1012 29.88 841 24.83 20.5 69 27 1.2 34.2
13:05 1012 29.88 841 24.83 20.3 68.6 26 0.4 32.8
13:10 1012 29.88 841 24.83 20.4 68.7 25 -0.2 31.6
13:15 1012 29.88 841 24.83 20.9 69.7 24 -0.4 31.3
13:20 1012 29.88 841 24.83 21.7 71 24 0.6 33.1
13:25 1012 29.88 841 24.83 21.8 71.3 24 0.7 33.2
13:30 1012 29.88 841 24.83 22 71.6 23 0.3 32.5
13:35 1012 29.88 841 24.83 21.7 71.1 24 0.6 33
13:40 1012 29.88 841 24.83 21.4 70.6 24 0.4 32.7
13:45 1012 29.88 841 24.83 21.2 70.2 25 0.4 32.7
13:50 1012 29.88 841 24.83 21 69.8 26 1.2 34.1
13:55 1012 29.88 841 24.83 21.1 69.9 25 0.6 33.1
14:00 1012 29.88 841 24.83 20.3 68.6 26 0.3 32.5
14:05 1012 29.88 841 24.83 20 67.9 27 0.4 32.8
14:10 1012 29.88 841 24.83 20.4 68.7 26 0.4 32.8
14:15 1012 29.88 841 24.83 20.8 69.5 25 0.1 32.1
14:20 1011 29.85 841 24.83 20.9 69.7 26 1 33.8
14:25 1012 29.88 841 24.83 20.9 69.7 25 0.1 32.2
14:30 1011 29.85 841 24.83 21 69.8 26 0.7 33.3
14:35 1011 29.85 841 24.83 21.8 71.3 23 -0.1 31.9
14:40 1011 29.85 841 24.83 22.5 72.4 24 0.9 33.6
14:45 1011 29.85 840 24.81 21.8 71.3 23 0.2 32.4
14:50 1011 29.85 840 24.81 22.4 72.3 22 -0.1 31.7
14:55 1011 29.85 840 24.81 22.3 72.1 21 -0.9 30.4
15:00 1011 29.85 840 24.81 23 73.4 22 0.5 32.8
15:05 1011 29.85 840 24.81 22.8 73 22 -0 31.9
15:10 1011 29.85 840 24.81 22.5 72.5 23 0.3 32.5
15:15 1011 29.85 840 24.81 23.4 74.2 20 -0.3 31.4
15:20 1011 29.85 840 24.81 22.9 73.2 21 -0.6 30.9
15:25 1011 29.85 840 24.81 22.9 73.2 18 -2.1 28.2
15:30 1011 29.85 840 24.81 22.4 72.4 20 -1.4 29.6
15:35 1011 29.85 840 24.81 22.4 72.3 20 -1.3 29.7
15:40 1011 29.85 840 24.81 22.7 72.8 19 -1.8 28.8
15:45 1011 29.85 840 24.81 23.5 74.4 15 -4.4 24.1
15:50 1011 29.85 840 24.81 24.2 75.5 15 -3.9 25
15:55 1011 29.85 840 24.81 24.3 75.8 16 -3.3 26.1
16:00 1011 29.85 840 24.81 23.2 73.7 15 -4.7 23.6
16:05 1011 29.85 840 24.81 23.4 74.2 14 -5.3 22.5
16:10 1011 29.85 840 24.81 23.6 74.4 15 -4.3 24.2
16:15 1011 29.85 840 24.81 24.1 75.4 15 -4 24.8
16:20 1011 29.85 840 24.81 23.7 74.6 15 -3.9 25
16:25 1011 29.85 840 24.81 24.5 76.1 15 -3.8 25.2
16:30 1011 29.85 840 24.81 25.2 77.3 15 -2.7 27.2
16:35 1010 29.83 840 24.81 25 76.9 15 -3.3 26
16:40 1010 29.83 840 24.81 24.9 76.8 15 -2.9 26.8
16:45 1010 29.83 840 24.81 25.4 77.6 15 -3.1 26.5
16:50 1010 29.83 840 24.81 25.7 78.3 15 -2.7 27.2
16:55 1010 29.83 840 24.81 25.8 78.5 15 -2.2 28.1
17:00 1010 29.83 840 24.81 25.8 78.4 15 -2.5 27.5
17:05 1010 29.83 839 24.78 25.4 77.7 16 -1.6 29.1
17:10 1010 29.83 839 24.78 24.8 76.7 17 -1.4 29.5
17:15 1010 29.83 839 24.78 25.1 77.1 18 -0.9 30.4
17:20 1010 29.83 839 24.78 24.9 76.8 17 -2 28.4
17:25 1010 29.83 839 24.78 24.6 76.3 18 -1 30.1
17:30 1010 29.83 839 24.78 24.1 75.5 17 -1.9 28.6
17:35 1010 29.83 839 24.78 23.8 74.9 19 -1.1 30
17:40 1010 29.83 839 24.78 24 75.1 20 -0.4 31.3
17:45 1010 29.83 839 24.78 24.1 75.4 21 0.4 32.7
17:50 1010 29.83 840 24.81 24.2 75.6 18 -1.1 30.1
17:55 1010 29.83 840 24.81 24.4 75.9 18 -1.1 30.1
18:00 1010 29.83 840 24.81 24.2 75.6 19 -0.9 30.5
18:05 1010 29.83 840 24.81 23.4 74.1 19 -1.1 30
18:10 1010 29.83 840 24.81 23 73.3 21 -0.2 31.7
18:15 1011 29.85 840 24.81 23 73.4 23 0.9 33.6
18:20 1011 29.85 840 24.81 22.9 73.1 24 1.4 34.4
18:25 1011 29.85 840 24.81 22.7 72.8 24 1.2 34.1
18:30 1011 29.85 840 24.81 22.6 72.7 22 -0.2 31.6
18:35 1011 29.85 840 24.81 22.6 72.6 23 0.8 33.4
18:40 1011 29.85 840 24.81 22.5 72.6 22 0.2 32.4
18:45 1011 29.85 840 24.81 22.4 72.4 23 0.7 33.2
18:50 1011 29.85 840 24.81 22.3 72.2 22 0 32
18:55 1011 29.85 840 24.81 22.2 72 23 0.4 32.7
19:00 1011 29.85 841 24.83 21.2 70.2 29 2.5 36.5
19:05 1011 29.85 841 24.83 20 68 29 1.4 34.5
19:10 1011 29.85 841 24.83 19.7 67.5 30 2 35.6
19:15 1011 29.85 841 24.83 19.4 67 32 2.4 36.3
19:20 1011 29.85 841 24.83 19 66.2 34 2.8 37
19:25 1011 29.85 840 24.81 18.7 65.6 37 3.8 38.8
19:30 1011 29.85 840 24.81 18.6 65.5 34 2.8 37
19:35 1011 29.85 840 24.81 18.7 65.6 33 2.4 36.3
19:40 1011 29.85 840 24.81 18.8 65.9 32 2.1 35.8
19:45 1011 29.85 840 24.81 18.9 66 33 2.5 36.4
19:50 1011 29.85 840 24.81 18.7 65.6 32 1.7 35.1
19:55 1011 29.85 840 24.81 18.9 65.9 34 2.6 36.8
20:00 1011 29.85 840 24.81 19.1 66.3 32 2.3 36.1
20:05 1011 29.85 840 24.81 18.9 66 32 1.9 35.3
20:10 1011 29.85 840 24.81 18.8 65.8 32 1.8 35.3
20:15 1011 29.85 840 24.81 18.8 65.9 32 2.1 35.7
20:20 1011 29.85 840 24.81 18.8 65.9 34 2.7 36.9
20:25 1011 29.85 840 24.81 18.3 64.9 37 3.3 37.9
20:30 1011 29.85 840 24.81 17.9 64.2 36 2.9 37.2
20:35 1011 29.85 840 24.81 18 64.3 35 2.5 36.6
20:40 1011 29.85 840 24.81 18.1 64.7 36 3 37.4
20:45 1011 29.85 840 24.81 17.7 63.8 39 3.6 38.5
20:50 1011 29.85 840 24.81 17.6 63.6 39 3.5 38.3
20:55 1011 29.85 840 24.81 17.8 64 38 3.4 38.2
21:00 1011 29.85 840 24.81 17.9 64.2 40 4.1 39.4
21:05 1011 29.85 840 24.81 17.6 63.7 41 4.4 40
21:10 1011 29.85 840 24.81 17 62.6 43 4.3 39.8
21:15 1011 29.85 840 24.81 16.9 62.3 41 3.5 38.3
21:20 1010 29.83 840 24.81 16.9 62.4 41 3.8 38.9
21:25 1011 29.85 840 24.81 16.8 62.2 44 4.6 40.2
21:30 1011 29.85 840 24.81 16.4 61.6 45 4.5 40.1
21:35 1011 29.85 840 24.81 16.1 60.9 44 4 39.2
21:40 1011 29.85 840 24.81 16 60.7 43 3.5 38.3
21:45 1011 29.85 840 24.81 16 60.8 43 3.7 38.6
21:50 1011 29.85 840 24.81 15.8 60.4 44 3.6 38.5
21:55 1011 29.85 840 24.81 15.8 60.4 44 3.5 38.3
22:00 1011 29.85 840 24.81 16 60.7 41 2.6 36.8
22:05 1011 29.85 840 24.81 16.5 61.7 40 3.1 37.6
22:10 1011 29.85 840 24.81 16.2 61.2 43 3.7 38.7
22:15 1011 29.85 840 24.81 15.6 60.1 44 3.6 38.4
22:20 1011 29.85 840 24.81 15.3 59.6 45 3.4 38.2
22:25 1011 29.85 840 24.81 15.2 59.4 44 3 37.4
22:30 1011 29.85 840 24.81 15.3 59.6 45 3.4 38.2
22:35 1011 29.85 840 24.81 16 60.7 42 3.1 37.6
22:40 1011 29.85 840 24.81 15.7 60.2 48 4.8 40.7
22:45 1011 29.85 840 24.81 14.4 58 48 3.7 38.7
22:50 1011 29.85 840 24.81 14.9 58.9 48 4.1 39.4
22:55 1011 29.85 840 24.81 14.5 58.1 50 4.2 39.5
23:00 1011 29.85 840 24.81 14.3 57.8 46 2.9 37.1
23:05 1011 29.85 840 24.81 14.8 58.6 47 3.6 38.4
23:10 1011 29.85 840 24.81 14.5 58.2 50 4.2 39.6
23:15 1011 29.85 840 24.81 14 57.3 51 4.2 39.5
23:20 1010 29.83 840 24.81 13.7 56.7 53 4.5 40.1
23:25 1010 29.83 840 24.81 13.2 55.7 56 4.6 40.3
23:30 1010 29.83 840 24.81 12.7 54.8 57 4.4 39.9
23:35 1010 29.83 840 24.81 12.8 55 55 4.1 39.5
23:40 1010 29.83 840 24.81 12.8 55.1 56 4.3 39.8
23:45 1010 29.83 839 24.78 12.8 55.1 56 4.4 39.9
23:50 1010 29.83 840 24.81 12.8 55.1 55 4.1 39.4
23:55 1010 29.83 840 24.81 13.4 56 53 3.9 39.1
24:00 1011 29.85 840 24.81 13.4 56.1 54 4.3 39.8